createdAt,value
2019-03-04T00:01:10.690Z,12.80
2019-03-04T00:03:39.738Z,12.80
2019-03-04T00:06:08.758Z,12.90
2019-03-04T00:08:37.651Z,12.90
2019-03-04T00:11:06.728Z,12.90
2019-03-04T00:13:35.623Z,12.90
2019-03-04T00:16:04.719Z,12.90
2019-03-04T00:18:33.761Z,12.90
2019-03-04T00:21:02.818Z,12.80
2019-03-04T00:26:00.687Z,12.80
2019-03-04T00:28:29.727Z,12.80
2019-03-04T00:30:59.043Z,12.90
2019-03-04T00:33:28.311Z,12.90
2019-03-04T00:35:57.264Z,12.90
2019-03-04T00:38:26.283Z,12.90
2019-03-04T00:40:55.240Z,12.90
2019-03-04T00:45:52.799Z,12.90
2019-03-04T00:48:21.868Z,12.90
2019-03-04T00:50:50.839Z,12.90
2019-03-04T00:53:19.772Z,12.90
2019-03-04T00:55:49.023Z,13.00
2019-03-04T00:58:18.061Z,13.00
2019-03-04T01:00:47.023Z,12.90
2019-03-04T01:03:16.079Z,13.00
2019-03-04T01:05:44.996Z,13.00
2019-03-04T01:08:13.971Z,12.90
2019-03-04T01:10:43.111Z,12.90
2019-03-04T01:13:12.148Z,12.80
2019-03-04T01:15:41.215Z,12.90
2019-03-04T01:18:10.263Z,13.00
2019-03-04T01:20:39.212Z,12.90
2019-03-04T01:23:08.166Z,12.90
2019-03-04T01:25:37.148Z,12.90
2019-03-04T01:28:06.387Z,12.90
2019-03-04T01:30:35.439Z,12.90
2019-03-04T01:33:05.143Z,12.80
2019-03-04T01:35:34.201Z,12.80
2019-03-04T01:38:03.287Z,12.80
2019-03-04T01:40:32.268Z,12.80
2019-03-04T01:43:01.258Z,12.80
2019-03-04T01:45:30.407Z,12.70
2019-03-04T01:47:59.435Z,12.80
2019-03-04T01:50:28.311Z,12.80
2019-03-04T01:52:57.384Z,12.80
2019-03-04T01:55:26.336Z,12.80
2019-03-04T01:57:55.304Z,12.80
2019-03-04T02:00:24.373Z,12.80
2019-03-04T02:02:53.416Z,12.70
2019-03-04T02:05:22.492Z,12.80
2019-03-04T02:07:51.452Z,12.80
2019-03-04T02:10:20.800Z,12.80
2019-03-04T02:12:49.960Z,12.80
2019-03-04T02:15:19.460Z,12.80
2019-03-04T02:17:48.601Z,12.80
2019-03-04T02:20:18.912Z,12.80
2019-03-04T02:22:48.051Z,12.80
2019-03-04T02:25:18.124Z,12.70
2019-03-04T02:27:50.260Z,12.70
2019-03-04T02:30:25.330Z,12.60
2019-03-04T02:32:54.468Z,12.70
2019-03-04T02:35:23.578Z,12.70
2019-03-04T02:37:53.046Z,12.70
2019-03-04T02:40:22.014Z,12.70
2019-03-04T02:42:51.052Z,12.70
2019-03-04T02:45:20.233Z,12.70
2019-03-04T02:47:49.258Z,12.80
2019-03-04T02:50:18.347Z,12.80
2019-03-04T02:52:47.749Z,12.70
2019-03-04T02:55:17.167Z,12.80
2019-03-04T02:57:46.209Z,12.70
2019-03-04T03:00:16.425Z,12.80
2019-03-04T03:02:45.320Z,12.70
2019-03-04T03:05:14.470Z,12.80
2019-03-04T03:07:43.541Z,12.70
2019-03-04T03:10:12.782Z,12.70
2019-03-04T03:12:41.762Z,12.70
2019-03-04T03:15:11.214Z,12.70
2019-03-04T03:17:40.302Z,12.70
2019-03-04T03:20:10.075Z,12.70
2019-03-04T03:22:39.402Z,12.70
2019-03-04T03:25:08.679Z,12.70
2019-03-04T03:27:37.552Z,12.70
2019-03-04T03:30:07.896Z,12.70
2019-03-04T03:32:36.883Z,12.70
2019-03-04T03:35:08.325Z,12.60
2019-03-04T03:37:37.849Z,12.70
2019-03-04T03:40:08.434Z,12.70
2019-03-04T03:42:37.442Z,12.60
2019-03-04T03:45:07.003Z,12.70
2019-03-04T03:47:36.039Z,12.60
2019-03-04T03:50:06.218Z,12.60
2019-03-04T03:52:35.186Z,12.60
2019-03-04T03:55:05.087Z,12.70
2019-03-04T03:57:34.139Z,12.70
2019-03-04T04:00:03.197Z,12.60
2019-03-04T04:02:32.395Z,12.60
2019-03-04T04:05:01.651Z,12.60
2019-03-04T04:07:30.703Z,12.50
2019-03-04T04:09:59.694Z,12.60
2019-03-04T04:12:28.723Z,12.60
2019-03-04T04:14:57.984Z,12.70
2019-03-04T04:17:26.946Z,12.70
2019-03-04T04:19:55.843Z,12.70
2019-03-04T04:22:24.883Z,12.70
2019-03-04T04:24:54.239Z,12.70
2019-03-04T04:27:23.291Z,12.70
2019-03-04T04:29:52.513Z,12.70
2019-03-04T04:32:21.465Z,12.70
2019-03-04T04:34:50.501Z,12.70
2019-03-04T04:37:19.458Z,12.70
2019-03-04T04:39:48.362Z,12.60
2019-03-04T04:42:17.276Z,12.60
2019-03-04T04:44:46.375Z,12.60
2019-03-04T04:47:15.411Z,12.60
2019-03-04T04:49:44.487Z,12.70
2019-03-04T04:52:13.787Z,12.70
2019-03-04T04:54:42.755Z,12.70
2019-03-04T04:57:11.727Z,12.80
2019-03-04T04:59:40.691Z,12.90
2019-03-04T05:02:09.682Z,12.90
2019-03-04T05:04:38.739Z,12.90
2019-03-04T05:07:07.707Z,12.90
2019-03-04T05:09:36.708Z,13.00
2019-03-04T05:12:05.700Z,13.00
2019-03-04T05:14:34.872Z,13.10
2019-03-04T05:17:04.211Z,13.10
2019-03-04T05:19:33.087Z,13.10
2019-03-04T05:22:02.148Z,13.20
2019-03-04T05:24:31.412Z,13.30
2019-03-04T05:27:00.396Z,13.40
2019-03-04T05:29:29.376Z,13.30
2019-03-04T05:31:58.428Z,13.20
2019-03-04T05:34:27.592Z,13.20
2019-03-04T05:36:56.828Z,13.20
2019-03-04T05:39:26.204Z,13.20
2019-03-04T05:41:55.168Z,13.20
2019-03-04T05:44:24.360Z,13.20
2019-03-04T05:46:53.316Z,13.20
2019-03-04T05:49:22.218Z,13.20
2019-03-04T05:51:51.305Z,13.20
2019-03-04T05:54:21.026Z,13.10
2019-03-04T05:56:49.976Z,13.10
2019-03-04T05:59:20.046Z,13.10
2019-03-04T06:02:03.540Z,13.10
2019-03-04T06:04:32.756Z,13.20
2019-03-04T06:07:07.824Z,13.20
2019-03-04T06:09:36.881Z,13.10
2019-03-04T06:12:05.920Z,13.10
2019-03-04T06:14:34.953Z,13.10
2019-03-04T06:17:03.980Z,13.00
2019-03-04T06:19:33.028Z,12.90
2019-03-04T06:22:01.993Z,12.70
2019-03-04T06:24:30.876Z,12.50
2019-03-04T06:27:00.157Z,12.40
2019-03-04T06:29:29.057Z,12.40
2019-03-04T06:31:58.085Z,12.30
2019-03-04T06:34:27.125Z,12.20
2019-03-04T06:36:56.181Z,12.20
2019-03-04T06:39:25.061Z,12.30
2019-03-04T06:41:53.949Z,12.20
2019-03-04T06:44:23.165Z,12.20
2019-03-04T06:46:52.146Z,12.10
2019-03-04T06:49:21.105Z,12.10
2019-03-04T06:51:51.033Z,12.10
2019-03-04T06:55:01.360Z,12.10
2019-03-04T06:57:36.257Z,12.00
2019-03-04T07:00:51.850Z,11.90
2019-03-04T07:03:42.326Z,11.90
2019-03-04T07:06:11.369Z,11.80
2019-03-04T07:09:07.425Z,11.80
2019-03-04T07:11:36.793Z,11.70
2019-03-04T07:14:06.273Z,11.70
2019-03-04T07:16:35.325Z,11.70
2019-03-04T07:19:06.937Z,11.60
2019-03-04T07:21:36.021Z,11.60
2019-03-04T07:24:05.253Z,11.50
2019-03-04T07:26:35.013Z,11.40
2019-03-04T07:29:04.152Z,11.40
2019-03-04T07:31:33.469Z,11.30
2019-03-04T07:34:02.524Z,11.30
2019-03-04T07:36:31.488Z,11.20
2019-03-04T07:39:16.612Z,11.10
2019-03-04T07:41:47.404Z,11.00
2019-03-04T07:44:16.440Z,10.90
2019-03-04T07:46:45.564Z,11.00
2019-03-04T07:49:14.538Z,11.20
2019-03-04T07:51:43.644Z,11.10
2019-03-04T07:54:13.558Z,11.10
2019-03-04T07:56:43.498Z,11.30
2019-03-04T07:59:13.042Z,11.20
2019-03-04T08:01:42.078Z,11.10
2019-03-04T08:04:11.197Z,10.30
2019-03-04T08:09:49.519Z,8.80
2019-03-04T08:12:57.834Z,8.80
2019-03-04T08:15:30.046Z,8.80
2019-03-04T08:17:58.930Z,8.80
2019-03-04T08:20:28.010Z,8.70
2019-03-04T08:22:56.910Z,8.60
2019-03-04T08:25:25.954Z,8.60
2019-03-04T08:27:55.136Z,8.60
2019-03-04T08:30:24.350Z,8.50
2019-03-04T08:32:53.311Z,8.50
2019-03-04T08:35:22.340Z,8.50
2019-03-04T08:37:51.387Z,8.30
2019-03-04T08:40:20.343Z,8.20
2019-03-04T08:42:49.306Z,8.10
2019-03-04T08:45:19.746Z,8.20
2019-03-04T08:47:49.123Z,8.30
2019-03-04T08:50:18.436Z,8.30
2019-03-04T08:52:47.511Z,8.70
2019-03-04T08:55:17.032Z,9.10
2019-03-04T08:57:46.100Z,9.30
2019-03-04T09:00:17.867Z,9.70
2019-03-04T09:02:47.507Z,10.20
2019-03-04T09:05:18.003Z,10.70
2019-03-04T09:07:47.192Z,11.00
2019-03-04T09:10:24.294Z,11.20
2019-03-04T09:12:53.430Z,11.40
2019-03-04T09:15:22.571Z,11.50
2019-03-04T09:17:51.631Z,11.50
2019-03-04T09:20:21.904Z,11.20
2019-03-04T09:22:51.047Z,11.10
2019-03-04T09:25:31.927Z,10.90
2019-03-04T09:28:01.222Z,10.80
2019-03-04T09:30:30.300Z,10.80
2019-03-04T09:32:59.427Z,10.70
2019-03-04T09:35:28.552Z,10.70
2019-03-04T09:37:57.726Z,10.60
2019-03-04T09:40:28.240Z,10.70
2019-03-04T09:42:57.329Z,10.70
2019-03-04T09:45:26.668Z,10.60
2019-03-04T09:47:55.705Z,10.60
2019-03-04T09:50:24.889Z,10.60
2019-03-04T09:52:54.289Z,10.60
2019-03-04T09:55:24.423Z,10.60
2019-03-04T09:57:53.548Z,10.70
2019-03-04T10:00:31.481Z,10.70
2019-03-04T10:03:37.728Z,10.80
2019-03-04T10:06:41.156Z,10.80
2019-03-04T10:09:48.183Z,10.90
2019-03-04T10:12:45.175Z,10.90
2019-03-04T10:15:45.920Z,10.80
2019-03-04T10:18:42.160Z,10.70
2019-03-04T10:21:50.003Z,10.60
2019-03-04T10:24:45.153Z,10.50
2019-03-04T10:27:44.137Z,10.40
2019-03-04T10:30:48.437Z,10.40
2019-03-04T10:33:55.741Z,10.30
2019-03-04T10:37:08.573Z,10.20
2019-03-04T10:40:15.682Z,10.10
2019-03-04T10:43:15.689Z,10.00
2019-03-04T10:46:07.905Z,9.80
2019-03-04T10:48:37.257Z,9.50
2019-03-04T10:51:06.279Z,9.20
2019-03-04T10:53:35.167Z,9.00
2019-03-04T12:33:01.122Z,8.40
2019-03-04T13:40:00.055Z,10.20
2019-03-04T13:42:29.034Z,11.00
2019-03-04T13:44:58.120Z,11.10
2019-03-04T13:47:27.152Z,11.00
2019-03-04T13:49:56.200Z,10.00
2019-03-04T13:52:25.378Z,9.90
2019-03-04T13:54:54.824Z,9.80
2019-03-04T13:57:23.816Z,9.80
2019-03-04T13:59:52.892Z,9.80
2019-03-04T14:02:21.932Z,9.90
2019-03-04T14:04:50.976Z,9.70
2019-03-04T14:07:20.109Z,9.70
2019-03-04T14:09:49.148Z,9.80
2019-03-04T14:12:18.196Z,9.80
2019-03-04T14:14:47.248Z,9.80
2019-03-04T14:17:16.220Z,9.80
2019-03-04T14:19:45.347Z,9.80
2019-03-04T14:22:14.388Z,9.70
2019-03-04T14:24:44.008Z,9.70
2019-03-04T14:27:12.896Z,9.60
2019-03-04T14:29:41.789Z,9.50
2019-03-04T14:32:10.805Z,9.50
2019-03-04T14:34:39.776Z,9.50
2019-03-04T14:37:08.797Z,9.40
2019-03-04T14:39:37.892Z,9.40
2019-03-04T14:42:06.969Z,9.50
2019-03-04T14:44:36.260Z,9.50
2019-03-04T14:47:05.651Z,9.50
2019-03-04T14:49:44.251Z,9.50
2019-03-04T14:52:05.481Z,9.50
2019-03-04T14:54:34.513Z,9.60
2019-03-04T14:57:03.499Z,9.50
2019-03-04T14:59:32.473Z,9.50
2019-03-04T15:02:01.501Z,9.50
2019-03-04T15:04:30.589Z,9.40
2019-03-04T15:06:59.590Z,9.40
2019-03-04T15:09:28.549Z,9.50
2019-03-04T15:11:57.517Z,9.50
2019-03-04T15:14:26.620Z,9.60
2019-03-04T15:17:03.236Z,9.70
2019-03-04T15:19:26.958Z,9.60
2019-03-04T15:21:56.171Z,9.50
2019-03-04T15:24:25.142Z,9.50
2019-03-04T15:26:54.194Z,9.40
2019-03-04T15:29:23.226Z,9.40
2019-03-04T15:31:52.266Z,9.40
2019-03-04T15:34:21.257Z,9.50
2019-03-04T15:36:50.210Z,9.40
2019-03-04T15:39:23.039Z,9.30
2019-03-04T15:41:50.440Z,9.30
2019-03-04T15:44:19.510Z,9.40
2019-03-04T15:46:48.602Z,9.20
2019-03-04T15:49:20.506Z,9.30
2019-03-04T15:51:49.458Z,9.30
2019-03-04T15:54:18.508Z,9.40
2019-03-04T15:56:47.630Z,9.30
2019-03-04T15:59:16.650Z,9.30
2019-03-04T16:01:45.606Z,9.30
2019-03-04T16:04:14.646Z,9.30
2019-03-04T16:06:43.775Z,9.20
2019-03-04T16:09:16.066Z,9.30
2019-03-04T16:11:45.402Z,9.20
2019-03-04T16:14:14.807Z,9.10
2019-03-04T16:16:44.042Z,9.10
2019-03-04T16:19:13.547Z,9.10
2019-03-04T16:21:42.486Z,9.10
2019-03-04T16:24:11.826Z,9.10
2019-03-04T16:26:40.935Z,9.10
2019-03-04T16:29:09.995Z,9.10
2019-03-04T16:31:39.071Z,9.00
2019-03-04T16:34:08.108Z,9.00
2019-03-04T16:36:37.163Z,8.90
2019-03-04T16:39:07.250Z,8.90
2019-03-04T16:41:36.560Z,8.80
2019-03-04T16:44:05.574Z,8.80
2019-03-04T16:46:34.623Z,8.70
2019-03-04T16:49:03.628Z,8.70
2019-03-04T16:51:32.667Z,8.70
2019-03-04T16:54:04.504Z,8.60
2019-03-04T16:56:32.552Z,8.60
